Time;durP1;ratioP1;P1;durP2;ratioP2;P2;SDS_P1;SDS_P2;PMS_P1;PMS_P2;Temp;Humidity;BMP_temperature;BMP_pressure;BME280_temperature;BME280_humidity;BME280_pressure;Samples;Min_cycle;Max_cycle;Signal;HPM_P1;HPM_P2
2022/02/04 00:21:28;;;;;;;;;24.40;22.00;;;;;9.22;43.95;98702.59;6213744;28;96555;-68
2022/02/04 00:24:32;;;;;;;;;27.00;23.00;;;;;9.17;44.34;98705.94;6215356;28;97479;-68
2022/02/04 00:27:36;;;;;;;;;25.25;23.25;;;;;9.16;44.92;98706.97;6213920;28;98459;-69
2022/02/04 00:30:40;;;;;;;;;27.00;24.00;;;;;9.09;45.59;98703.50;6215346;28;97445;-72
2022/02/04 00:33:46;;;;;;;;;21.00;19.00;;;;;8.99;46.97;98708.56;6215332;28;96153;-72
2022/02/04 00:37:00;;;;;;;;;24.00;20.00;;;;;8.90;47.63;98707.13;6196385;28;96968;-70
2022/02/04 00:40:12;;;;;;;;;25.20;22.60;;;;;8.81;48.15;98697.66;6214914;28;96919;-69
2022/02/04 00:43:17;;;;;;;;;21.50;19.00;;;;;8.74;48.55;98692.34;6211414;28;96707;-70
2022/02/04 00:46:26;;;;;;;;;28.50;21.50;;;;;8.59;49.00;98678.38;6196177;28;99579;-70
2022/02/04 00:49:58;;;;;;;;;24.50;22.50;;;;;8.57;49.28;98678.56;6214180;28;97490;-69
2022/02/04 00:53:09;;;;;;;;;24.00;21.00;;;;;8.53;49.28;98685.41;6229314;28;98406;-70
2022/02/04 00:56:21;;;;;;;;;23.00;21.00;;;;;8.51;49.46;98668.66;6204552;28;97064;-70
2022/02/04 01:26:14;;;;;;;;;13.00;11.00;;;;;8.49;51.28;98617.03;6212092;28;97968;-70
2022/02/04 01:29:19;;;;;;;;;6.00;6.00;;;;;8.52;51.13;98605.00;6196216;28;97376;-72
2022/02/04 01:32:22;;;;;;;;;9.00;9.00;;;;;8.46;51.36;98600.50;6195952;28;97079;-70
2022/02/04 01:35:25;;;;;;;;;8.00;7.00;;;;;8.38;51.42;98592.69;6213577;28;96677;-71
2022/02/04 01:38:30;;;;;;;;;7.25;6.00;;;;;8.48;51.46;98585.00;6212950;28;97792;-70
2022/02/04 01:41:33;;;;;;;;;9.00;8.50;;;;;8.46;51.68;98576.31;6213535;28;96543;-70
2022/02/04 01:44:38;;;;;;;;;5.75;5.75;;;;;8.39;51.80;98567.50;6213997;28;97075;-72
2022/02/04 01:51:11;;;;;;;;;3.50;3.50;;;;;8.48;51.60;98548.22;6286853;27;96317;-68
2022/02/04 01:54:15;;;;;;;;;6.60;6.00;;;;;8.08;51.62;98472.41;6258390;27;96904;-72
2022/02/04 01:57:18;;;;;;;;;8.40;7.00;;;;;8.57;51.37;98541.53;6257266;27;97400;-69
2022/02/04 02:00:21;;;;;;;;;6.40;6.40;;;;;8.67;51.26;98543.75;6232409;27;96882;-70
2022/02/04 02:03:25;;;;;;;;;8.00;7.40;;;;;8.76;51.02;98536.22;6231844;28;96497;-72
2022/02/04 02:06:50;;;;;;;;;6.00;6.00;;;;;8.79;51.06;98538.50;6233553;28;97376;-69
2022/02/04 02:09:58;;;;;;;;;6.00;5.00;;;;;8.82;50.96;98540.72;6233364;27;97561;-70
2022/02/04 02:13:11;;;;;;;;;6.00;6.00;;;;;8.90;50.80;98535.06;6231264;27;99689;-70
2022/02/04 02:16:44;;;;;;;;;5.40;5.00;;;;;8.90;50.75;98537.75;6258548;27;97533;-72
2022/02/04 02:37:50;;;;;;;;;6.00;6.00;;;;;8.70;51.00;98514.56;6100002;28;97896;-72
2022/02/04 02:47:27;;;;;;;;;6.00;5.00;;;;;8.94;50.33;98509.44;6217638;27;97400;-72
2022/02/04 02:50:56;;;;;;;;;8.00;7.00;;;;;9.02;50.81;98515.34;6230783;28;96413;-69
2022/02/04 03:04:04;;;;;;;;;5.00;5.00;;;;;9.27;50.45;98518.00;6240357;28;96894;-70
2022/02/04 03:07:07;;;;;;;;;4.00;4.00;;;;;9.30;50.25;98519.41;6240334;28;96390;-69
2022/02/04 03:10:11;;;;;;;;;6.00;5.00;;;;;9.29;50.41;98507.81;6236988;27;97056;-71
2022/02/04 03:13:15;;;;;;;;;5.00;5.00;;;;;9.33;50.52;98513.59;6239149;28;96401;-71
2022/02/04 03:16:19;;;;;;;;;5.00;5.00;;;;;9.33;50.40;98516.28;6219650;28;99497;-68
2022/02/04 03:19:26;;;;;;;;;7.00;5.00;;;;;9.32;50.56;98510.09;6197421;28;100125;-68
2022/02/04 03:22:29;;;;;;;;;6.00;6.00;;;;;9.33;50.72;98509.03;6215246;28;96438;-70
2022/02/04 03:25:38;;;;;;;;;6.00;6.00;;;;;9.30;50.73;98509.47;6201913;28;97232;-72
2022/02/04 03:28:43;;;;;;;;;5.80;4.80;;;;;9.31;50.78;98504.91;6219154;28;97261;-69
2022/02/04 03:31:50;;;;;;;;;6.00;6.00;;;;;9.24;50.89;98494.22;6234470;28;97783;-72
2022/02/04 03:34:53;;;;;;;;;7.00;6.00;;;;;9.14;51.16;98493.91;6237501;28;96674;-69
2022/02/04 03:37:57;;;;;;;;;6.00;5.00;;;;;9.15;51.14;98490.19;6221822;28;99714;-70
2022/02/04 03:41:00;;;;;;;;;8.00;8.00;;;;;9.13;51.33;98497.66;6223697;28;96878;-70
2022/02/04 03:44:06;;;;;;;;;9.80;8.00;;;;;9.11;51.13;98481.75;6240189;28;97484;-69
2022/02/04 03:47:09;;;;;;;;;8.00;6.60;;;;;9.11;51.31;98499.75;6238931;28;97366;-72
2022/02/04 03:50:13;;;;;;;;;8.00;7.00;;;;;9.09;51.36;98483.81;6238553;28;97709;-69
2022/02/04 03:53:17;;;;;;;;;6.20;5.80;;;;;9.12;51.26;98487.94;6237198;28;97855;-70
2022/02/04 03:56:20;;;;;;;;;7.00;7.00;;;;;9.13;51.29;98476.97;6238550;28;96954;-71
2022/02/04 03:59:26;;;;;;;;;7.00;6.25;;;;;9.17;51.10;98484.59;6237120;28;96544;-71
2022/02/04 04:02:29;;;;;;;;;9.00;8.00;;;;;9.18;51.16;98492.44;6244984;27;97506;-71
2022/02/04 04:05:36;;;;;;;;;8.00;7.60;;;;;9.20;50.94;98484.97;6230951;28;97421;-70
2022/02/04 04:08:39;;;;;;;;;7.80;7.00;;;;;9.24;50.84;98488.00;6216384;27;96621;-70
2022/02/04 04:11:46;;;;;;;;;7.25;7.00;;;;;9.24;50.83;98478.06;6234819;27;98378;-69
2022/02/04 04:14:54;;;;;;;;;8.00;7.00;;;;;9.26;50.82;98475.19;6233765;28;97094;-69
2022/02/04 04:17:57;;;;;;;;;7.00;6.00;;;;;9.29;50.67;98469.34;6227088;28;97399;-68
2022/02/04 04:21:01;;;;;;;;;7.00;7.00;;;;;9.26;50.84;98469.78;6219914;28;97030;-68
2022/02/04 04:24:05;;;;;;;;;8.00;8.00;;;;;9.25;50.88;98470.84;6238919;28;96371;-70
2022/02/04 04:27:08;;;;;;;;;7.00;7.00;;;;;9.26;50.96;98465.25;6238163;27;97479;-69
2022/02/04 04:30:14;;;;;;;;;9.00;8.00;;;;;9.12;51.36;98450.28;6221241;28;96684;-71
2022/02/04 04:33:18;;;;;;;;;9.00;9.00;;;;;9.00;51.55;98438.63;6221703;28;96571;-71
2022/02/04 04:36:22;;;;;;;;;9.00;8.00;;;;;9.00;51.64;98449.38;6211493;28;97602;-69
2022/02/04 04:39:30;;;;;;;;;7.25;7.00;;;;;8.97;51.87;98450.66;6210587;28;98712;-69
2022/02/04 04:42:49;;;;;;;;;11.00;9.00;;;;;8.99;51.67;98442.38;6211611;28;96915;-69
2022/02/04 04:46:23;;;;;;;;;11.40;9.80;;;;;9.06;51.60;98441.25;6193860;28;96803;-71
2022/02/04 05:26:36;;;;;;;;;7.80;6.80;;;;;9.40;51.03;98422.88;6235323;27;97857;-70
2022/02/04 05:29:39;;;;;;;;;8.00;7.33;;;;;9.45;50.92;98426.53;6219717;28;99973;-69
2022/02/04 05:32:43;;;;;;;;;9.00;7.60;;;;;9.47;51.17;98421.75;6227284;28;96747;-69
2022/02/04 05:35:48;;;;;;;;;8.00;7.00;;;;;9.44;51.19;98418.66;6215711;28;98325;-71
2022/02/04 05:38:53;;;;;;;;;10.00;8.40;;;;;9.45;51.09;98423.84;6202198;28;99312;-72
2022/02/04 05:41:57;;;;;;;;;9.00;8.20;;;;;9.34;51.15;98410.31;6209983;28;97716;-70
2022/02/04 05:45:04;;;;;;;;;10.60;9.60;;;;;9.46;51.00;98421.97;6214982;28;97420;-72
2022/02/04 05:48:07;;;;;;;;;9.00;8.80;;;;;9.42;51.05;98413.53;6228122;27;98108;-72
2022/02/04 05:54:48;;;;;;;;;10.00;9.00;;;;;9.55;50.24;98421.44;6205306;28;99184;-70
2022/02/04 05:57:58;;;;;;;;;10.00;9.00;;;;;9.60;49.88;98425.31;6226771;27;97619;-72
2022/02/04 06:01:09;;;;;;;;;10.60;9.60;;;;;9.65;49.68;98425.47;6226190;27;97148;-70
2022/02/04 06:04:28;;;;;;;;;9.67;8.33;;;;;9.67;49.42;98424.19;6215336;28;99552;-71
2022/02/04 06:07:40;;;;;;;;;9.40;8.00;;;;;9.71;49.28;98425.38;6228612;27;96668;-72
2022/02/04 06:11:06;;;;;;;;;10.40;9.00;;;;;9.74;49.04;98435.69;6232092;28;97531;-71
2022/02/04 06:14:31;;;;;;;;;11.40;10.00;;;;;9.72;48.66;98432.41;6231245;28;97483;-70
2022/02/04 06:24:20;;;;;;;;;12.00;10.00;;;;;9.77;48.50;98440.63;6232574;27;96940;-68
2022/02/04 06:27:25;;;;;;;;;13.00;11.00;;;;;9.74;48.51;98443.75;6228994;28;97787;-71
2022/02/04 06:30:29;;;;;;;;;8.60;8.00;;;;;9.78;48.47;98439.56;6210186;28;97394;-71
2022/02/04 06:33:33;;;;;;;;;11.00;8.00;;;;;9.77;48.31;98434.41;6224857;28;97424;-69
2022/02/04 06:36:36;;;;;;;;;10.40;10.00;;;;;9.75;48.55;98433.81;6233846;27;97402;-71
2022/02/04 06:39:40;;;;;;;;;8.20;8.00;;;;;9.65;48.91;98431.66;6237121;28;97849;-69
2022/02/04 06:42:44;;;;;;;;;8.00;8.00;;;;;9.56;48.59;98417.72;6228190;28;96462;-69
2022/02/04 06:45:47;;;;;;;;;10.00;9.00;;;;;9.73;48.50;98442.09;6223344;28;99062;-70
2022/02/04 06:48:51;;;;;;;;;10.00;10.00;;;;;9.77;48.47;98437.94;6226454;27;96864;-69
2022/02/04 06:51:54;;;;;;;;;10.00;9.00;;;;;9.84;48.35;98433.28;6238587;28;97535;-68
2022/02/04 06:54:59;;;;;;;;;10.00;10.00;;;;;9.97;48.09;98433.06;6237742;28;97162;-68
2022/02/04 06:58:03;;;;;;;;;11.00;10.00;;;;;10.06;48.05;98428.22;6237108;28;97900;-70
2022/02/04 07:01:06;;;;;;;;;13.00;11.00;;;;;10.16;48.00;98433.91;6230571;28;97087;-70
2022/02/04 07:04:11;;;;;;;;;11.00;10.00;;;;;10.19;47.93;98428.03;6239916;27;97657;-71
2022/02/04 07:07:16;;;;;;;;;11.60;10.00;;;;;10.36;47.71;98439.00;6239851;28;97600;-69
2022/02/04 07:10:28;;;;;;;;;12.00;11.40;;;;;10.40;47.79;98438.28;6231294;28;97507;-71
2022/02/04 07:13:43;;;;;;;;;11.00;10.00;;;;;10.52;47.78;98435.59;6215163;28;96498;-72
2022/02/04 07:17:09;;;;;;;;;8.40;8.00;;;;;10.59;47.58;98436.31;6212896;28;97783;-72
2022/02/04 07:23:51;;;;;;;;;12.33;11.33;;;;;10.81;47.47;98433.84;6207162;28;98036;-73
2022/02/04 07:26:56;;;;;;;;;11.00;11.00;;;;;10.89;47.70;98432.72;6211796;28;97461;-70
2022/02/04 07:29:59;;;;;;;;;13.00;11.60;;;;;11.00;47.38;98431.84;6208683;28;96959;-73
2022/02/04 07:33:12;;;;;;;;;14.80;14.00;;;;;11.22;47.01;98435.63;6204606;28;96588;-72
2022/02/04 07:42:58;;;;;;;;;14.80;12.80;;;;;11.18;46.84;98440.66;6197372;28;97104;-68
2022/02/04 07:46:04;;;;;;;;;15.00;13.33;;;;;11.11;46.95;98442.66;6203461;28;97360;-70
2022/02/04 07:49:09;;;;;;;;;15.50;14.00;;;;;11.08;47.31;98440.44;6188689;28;96657;-71
2022/02/04 07:52:12;;;;;;;;;13.60;13.00;;;;;11.21;47.15;98442.06;6182899;28;98047;-70
2022/02/04 07:55:16;;;;;;;;;14.00;13.00;;;;;12.87;44.71;98447.13;6187793;28;97384;-69
2022/02/04 07:58:22;;;;;;;;;14.00;13.60;;;;;15.93;39.21;98442.53;6188835;28;98070;-71
2022/02/04 08:01:29;;;;;;;;;15.00;12.00;;;;;18.06;34.45;98430.38;6183435;28;96543;-69
2022/02/04 08:04:35;;;;;;;;;14.00;13.00;;;;;18.29;32.69;98423.41;6170343;28;96674;-69
2022/02/04 08:07:48;;;;;;;;;13.40;12.00;;;;;17.78;32.81;98424.78;6169696;28;98783;-70
2022/02/04 08:11:07;;;;;;;;;14.60;13.00;;;;;17.15;33.41;98427.91;6171357;28;96484;-68
2022/02/04 08:14:25;;;;;;;;;12.60;12.00;;;;;16.51;34.11;98430.41;6170088;28;96894;-70
2022/02/04 08:24:44;;;;;;;;;14.00;12.00;;;;;15.41;36.98;98439.78;6095692;28;98230;-68
2022/02/04 08:35:13;;;;;;;;;15.50;14.50;;;;;14.42;38.74;98418.72;6251731;27;98563;-73
2022/02/04 08:51:56;;;;;;;;;13.40;12.00;;;;;13.69;39.71;98403.03;6255107;27;97457;-69
2022/02/04 08:55:04;;;;;;;;;13.00;12.00;;;;;13.79;39.63;98450.03;6247728;27;98257;-69
2022/02/04 08:58:22;;;;;;;;;12.00;10.00;;;;;13.66;39.53;98450.41;6255752;27;97078;-72
2022/02/04 09:01:30;;;;;;;;;12.20;11.20;;;;;13.66;39.65;98463.16;6254210;27;96577;-72
2022/02/04 09:04:41;;;;;;;;;17.00;13.00;;;;;13.50;39.85;98467.53;6238438;27;98563;-69
2022/02/04 09:07:52;;;;;;;;;14.00;12.25;;;;;13.38;39.94;98454.13;6255244;27;96687;-73
2022/02/04 09:11:01;;;;;;;;;12.00;10.00;;;;;13.37;40.30;98455.19;6248874;27;97408;-72
2022/02/04 09:17:49;;;;;;;;;13.00;11.67;;;;;13.22;40.44;98473.94;6248596;27;97998;-69
2022/02/04 09:24:23;;;;;;;;;12.00;11.00;;;;;13.08;40.38;98479.91;6206514;27;98304;-73
2022/02/04 09:27:26;;;;;;;;;11.00;11.00;;;;;13.02;40.48;98474.41;6256439;27;96881;-72
2022/02/04 09:30:33;;;;;;;;;10.25;9.25;;;;;12.98;40.71;98480.56;6258769;27;96522;-70
2022/02/04 09:33:36;;;;;;;;;12.00;11.60;;;;;12.95;40.63;98484.56;6254763;27;98885;-70
2022/02/04 09:36:41;;;;;;;;;12.00;11.00;;;;;12.80;40.69;98468.13;6251280;27;97554;-69
2022/02/04 09:39:45;;;;;;;;;11.60;11.00;;;;;13.01;40.82;98469.25;6250828;27;97285;-71
2022/02/04 09:42:48;;;;;;;;;12.00;10.60;;;;;13.02;40.41;98469.00;6222696;27;97249;-73
2022/02/04 09:45:52;;;;;;;;;11.25;10.00;;;;;13.05;40.12;98454.13;6237018;28;97522;-74
2022/02/04 09:48:57;;;;;;;;;14.40;12.00;;;;;13.21;39.88;98477.69;6221531;27;96663;-72
2022/02/04 10:09:41;;;;;;;;;17.00;15.25;;;;;13.74;39.34;98451.84;6240122;27;96465;-72
2022/02/04 10:13:13;;;;;;;;;18.00;15.80;;;;;13.87;38.81;98436.06;6238810;28;97482;-72
2022/02/04 10:16:54;;;;;;;;;20.00;17.50;;;;;14.30;38.66;98439.75;6236390;28;96686;-72
2022/02/04 10:19:59;;;;;;;;;17.50;16.25;;;;;14.93;37.08;98432.72;6232049;28;96987;-71
2022/02/04 10:23:03;;;;;;;;;19.00;17.50;;;;;15.73;36.12;98431.56;6227842;28;97381;-72
2022/02/04 10:26:09;;;;;;;;;21.00;18.00;;;;;16.39;34.80;98427.09;6236857;28;97463;-72
2022/02/04 10:29:21;;;;;;;;;20.00;18.00;;;;;16.57;34.14;98423.84;6228763;28;97857;-74
2022/02/04 10:32:25;;;;;;;;;17.00;15.80;;;;;16.44;33.55;98433.38;6236630;28;96385;-70
2022/02/04 10:35:33;;;;;;;;;19.60;17.00;;;;;16.34;33.90;98418.94;6233067;28;97250;-74
2022/02/04 10:38:42;;;;;;;;;16.60;14.00;;;;;16.14;33.82;98429.78;6239399;27;96982;-71
2022/02/04 10:42:05;;;;;;;;;17.80;13.60;;;;;15.95;34.33;98424.03;6236818;28;97067;-71
2022/02/04 10:45:30;;;;;;;;;18.00;16.00;;;;;15.94;34.06;98414.22;6237289;28;98363;-71
2022/02/04 10:55:41;;;;;;;;;17.00;15.00;;;;;16.17;34.00;98416.47;6236825;28;96927;-71
2022/02/04 10:58:59;;;;;;;;;16.60;15.00;;;;;16.40;33.28;98421.41;6224866;28;97314;-72
2022/02/04 11:02:19;;;;;;;;;18.00;16.67;;;;;16.67;33.30;98414.91;6234698;28;97170;-72
2022/02/04 11:05:43;;;;;;;;;18.00;16.00;;;;;16.73;32.80;98406.47;6230583;28;96905;-73
2022/02/04 11:21:46;;;;;;;;;17.00;15.00;;;;;16.69;32.80;98405.38;6214178;28;97762;-73
2022/02/04 11:36:42;;;;;;;;;19.00;17.80;;;;;16.13;34.41;98387.34;6219012;28;98674;-73
2022/02/04 11:43:48;;;;;;;;;17.80;16.00;;;;;15.90;34.57;98377.78;6230672;28;97300;-72
2022/02/04 11:54:29;;;;;;;;;21.00;19.67;;;;;15.49;35.61;98369.47;6182420;28;98525;-70
2022/02/04 11:57:23;;;;;;;;;22.50;21.50;;;;;15.35;36.26;98373.75;6231281;28;97246;-69
2022/02/04 12:00:28;;;;;;;;;24.00;21.00;;;;;15.23;36.36;98373.19;6231279;28;97506;-68
2022/02/04 12:03:36;;;;;;;;;24.20;22.40;;;;;15.03;36.79;98375.78;6233832;28;98201;-67
2022/02/04 12:06:42;;;;;;;;;24.20;22.20;;;;;14.96;37.06;98378.72;6228902;28;97495;-71
2022/02/04 12:09:47;;;;;;;;;30.25;25.50;;;;;14.82;37.06;98382.16;6229406;28;97008;-68
2022/02/04 12:13:07;;;;;;;;;26.00;24.00;;;;;14.74;37.51;98375.31;6231669;28;97164;-70
2022/02/04 12:16:30;;;;;;;;;23.80;22.80;;;;;14.63;37.92;98379.03;6229103;28;96735;-68
2022/02/04 12:19:39;;;;;;;;;26.80;23.40;;;;;14.58;38.26;98373.56;6230720;28;98897;-70
2022/02/04 12:22:55;;;;;;;;;25.40;22.40;;;;;14.48;38.43;98378.91;6227727;28;97664;-72
2022/02/04 12:26:00;;;;;;;;;26.00;23.00;;;;;14.38;38.62;98376.94;6225296;28;98353;-70
2022/02/04 12:29:09;;;;;;;;;26.25;23.00;;;;;14.27;38.78;98381.41;6233314;28;97112;-70
2022/02/04 12:32:12;;;;;;;;;24.00;23.00;;;;;14.05;39.03;98374.44;6226033;27;97458;-72
2022/02/04 12:35:18;;;;;;;;;28.00;23.75;;;;;14.00;39.35;98368.97;6215548;28;98911;-70
2022/02/04 12:38:22;;;;;;;;;27.00;24.00;;;;;13.88;39.55;98379.94;6208179;28;98331;-71
2022/02/04 12:41:29;;;;;;;;;31.20;26.20;;;;;13.77;39.99;98370.09;6212673;28;99511;-71
2022/02/04 12:44:34;;;;;;;;;29.80;26.00;;;;;13.78;40.11;98372.53;6227782;28;97775;-72
2022/02/04 12:47:37;;;;;;;;;24.00;23.00;;;;;13.75;40.36;98370.34;6233482;28;98005;-68
2022/02/04 12:50:44;;;;;;;;;25.40;24.00;;;;;13.79;40.39;98370.63;6228452;27;97412;-71
2022/02/04 12:53:49;;;;;;;;;24.60;22.60;;;;;13.68;40.29;98372.41;6213482;28;97107;-68
2022/02/04 12:57:27;;;;;;;;;25.60;23.60;;;;;13.65;40.17;98363.97;6217443;28;97275;-70
2022/02/04 13:01:57;;;;;;;;;31.20;26.00;;;;;13.55;40.13;98361.16;6232749;27;97434;-72
2022/02/04 13:10:58;;;;;;;;;28.60;25.60;;;;;13.48;40.85;98363.25;6231602;28;97363;-68
2022/02/04 13:14:01;;;;;;;;;28.40;24.60;;;;;13.43;40.51;98361.31;6213129;28;98445;-68
2022/02/04 13:17:06;;;;;;;;;27.40;25.00;;;;;13.48;40.75;98357.84;6229621;27;96729;-70
2022/02/04 13:20:10;;;;;;;;;28.60;26.00;;;;;13.52;41.08;98354.38;6230991;28;97643;-70
2022/02/04 13:23:18;;;;;;;;;30.00;28.00;;;;;13.40;41.28;98343.66;6232747;28;97428;-70
2022/02/04 13:26:24;;;;;;;;;31.80;30.00;;;;;13.59;40.97;98352.28;6236309;27;99154;-70
2022/02/04 13:29:28;;;;;;;;;37.00;30.50;;;;;13.58;40.93;98347.94;6229506;28;97443;-66
2022/02/04 13:32:31;;;;;;;;;34.00;31.00;;;;;13.57;40.84;98348.19;6217083;28;97146;-71
2022/02/04 13:35:39;;;;;;;;;34.67;30.00;;;;;13.57;40.96;98342.78;6230647;28;97501;-68
2022/02/04 13:38:53;;;;;;;;;34.80;30.80;;;;;13.52;41.18;98338.13;6236750;27;98083;-71
2022/02/04 13:42:10;;;;;;;;;27.60;25.00;;;;;13.45;40.75;98334.78;6232614;28;96631;-70
2022/02/04 13:45:38;;;;;;;;;28.00;26.00;;;;;13.38;40.84;98339.59;6232924;28;96578;-68
2022/02/04 13:49:06;;;;;;;;;29.80;27.00;;;;;13.35;40.92;98337.38;6217938;28;97406;-70
2022/02/04 13:52:15;;;;;;;;;31.00;28.00;;;;;13.26;40.87;98333.47;6210501;28;99776;-72
2022/02/04 13:55:29;;;;;;;;;33.00;29.40;;;;;13.16;41.17;98325.22;6233744;28;97551;-72
2022/02/04 13:58:39;;;;;;;;;32.00;29.50;;;;;13.11;40.88;98328.69;6232720;28;97427;-68
2022/02/04 14:01:53;;;;;;;;;34.20;30.00;;;;;13.10;40.92;98328.91;6232317;28;96971;-68
2022/02/04 14:05:01;;;;;;;;;33.00;31.00;;;;;13.10;40.83;98335.13;6233580;28;97246;-71
2022/02/04 14:08:07;;;;;;;;;35.00;30.00;;;;;13.08;40.89;98333.75;6233992;28;97114;-71
2022/02/04 14:11:11;;;;;;;;;37.00;32.00;;;;;13.09;40.69;98324.59;6228470;28;96632;-71
2022/02/04 14:14:36;;;;;;;;;41.60;33.00;;;;;13.05;40.75;98331.56;6232153;28;97390;-70
2022/02/04 14:17:39;;;;;;;;;41.60;33.00;;;;;12.92;40.98;98325.44;6251284;27;97470;-71
2022/02/04 14:20:44;;;;;;;;;42.25;33.00;;;;;12.91;40.81;98326.50;6232075;28;97645;-71
2022/02/04 14:23:52;;;;;;;;;40.00;34.00;;;;;12.76;40.72;98310.06;6213559;28;98123;-70
2022/02/04 14:26:57;;;;;;;;;38.80;32.60;;;;;12.83;40.97;98320.72;6230579;28;97271;-74
2022/02/04 14:30:06;;;;;;;;;38.33;32.33;;;;;12.79;41.00;98316.88;6230508;28;97114;-74
2022/02/04 14:33:14;;;;;;;;;34.25;31.25;;;;;12.75;41.04;98321.97;6226810;27;100102;-72
2022/02/04 14:36:26;;;;;;;;;36.75;30.00;;;;;12.58;40.93;98296.84;6231437;28;97169;-71
2022/02/04 14:49:59;;;;;;;;;31.60;29.20;;;;;12.40;41.57;98303.34;6202282;28;96750;-72
2022/02/04 14:53:08;;;;;;;;;32.25;28.00;;;;;12.07;41.60;98250.13;6226169;28;96967;-72
2022/02/04 15:03:13;;;;;;;;;30.40;28.40;;;;;12.48;41.74;98327.25;6226995;27;96813;-74
2022/02/04 15:06:22;;;;;;;;;28.20;24.00;;;;;12.05;41.56;98282.00;6230376;28;97250;-72
2022/02/04 15:09:42;;;;;;;;;26.25;25.00;;;;;12.38;42.06;98329.78;6237125;28;96570;-72
2022/02/04 15:12:46;;;;;;;;;24.00;21.00;;;;;12.32;41.88;98340.75;6239193;28;96926;-73
2022/02/04 15:15:50;;;;;;;;;22.75;20.25;;;;;12.24;41.66;98333.91;6233716;28;96670;-74
2022/02/04 15:18:55;;;;;;;;;21.60;19.60;;;;;12.20;41.50;98332.75;6231383;27;99371;-73
2022/02/04 15:22:00;;;;;;;;;19.00;16.75;;;;;12.18;41.47;98331.34;6223224;28;96638;-74
2022/02/04 15:25:11;;;;;;;;;13.00;12.60;;;;;12.19;41.23;98325.72;6232333;28;98656;-73
2022/02/04 15:28:33;;;;;;;;;16.00;14.00;;;;;12.22;40.95;98332.53;6233487;28;98580;-72
2022/02/04 15:31:42;;;;;;;;;13.00;11.60;;;;;12.04;41.19;98318.16;6224842;28;96574;-73
2022/02/04 15:34:47;;;;;;;;;13.00;12.00;;;;;12.21;41.19;98341.69;6230805;28;97703;-73
2022/02/04 15:37:50;;;;;;;;;11.60;11.60;;;;;11.69;40.99;98283.22;6211377;28;97854;-72
2022/02/04 15:40:54;;;;;;;;;11.60;11.00;;;;;12.20;41.21;98338.16;6231502;28;96810;-74
2022/02/04 15:44:02;;;;;;;;;13.40;12.40;;;;;12.20;41.22;98340.84;6234022;28;96729;-74
2022/02/04 15:47:21;;;;;;;;;12.00;11.00;;;;;12.01;41.11;98323.25;6215462;27;97423;-72
2022/02/04 15:50:36;;;;;;;;;13.40;12.00;;;;;11.85;41.37;98300.56;6234929;27;96885;-72
2022/02/04 15:53:59;;;;;;;;;12.60;12.00;;;;;12.18;41.50;98348.38;6225823;28;98940;-73
2022/02/04 15:57:17;;;;;;;;;12.00;12.00;;;;;12.20;41.35;98353.56;6236362;28;96859;-72
2022/02/04 16:03:52;;;;;;;;;13.00;12.00;;;;;12.12;41.34;98352.06;6220661;28;99590;-72
2022/02/04 16:06:57;;;;;;;;;14.00;13.00;;;;;12.14;41.35;98350.75;6237347;28;97072;-73
2022/02/04 16:10:13;;;;;;;;;14.00;13.00;;;;;12.08;41.36;98324.72;6228133;28;96605;-74
2022/02/04 16:13:28;;;;;;;;;12.00;10.60;;;;;12.14;41.26;98333.72;6231284;28;96422;-74
2022/02/04 16:16:37;;;;;;;;;11.00;11.00;;;;;12.19;41.45;98341.09;6224861;27;98017;-74
2022/02/04 16:19:45;;;;;;;;;11.00;10.00;;;;;11.83;41.28;98294.56;6238795;28;97304;-74
2022/02/04 16:23:00;;;;;;;;;14.40;14.00;;;;;12.21;41.32;98349.78;6226837;28;97244;-74
2022/02/04 16:26:24;;;;;;;;;11.20;10.80;;;;;12.25;41.44;98340.13;6229704;28;97522;-73
2022/02/04 16:29:28;;;;;;;;;14.00;11.25;;;;;11.98;41.07;98340.75;6211316;28;97283;-73
2022/02/04 16:32:32;;;;;;;;;14.40;13.00;;;;;12.18;41.19;98334.03;6233256;28;98430;-72
2022/02/04 16:35:35;;;;;;;;;15.00;14.00;;;;;12.13;41.44;98330.22;6229442;28;97468;-71
2022/02/04 16:38:40;;;;;;;;;14.00;13.00;;;;;12.07;41.53;98323.06;6232486;28;97170;-72
2022/02/04 16:41:54;;;;;;;;;16.00;14.00;;;;;12.05;41.32;98316.28;6216700;27;97572;-73
2022/02/04 16:44:59;;;;;;;;;15.00;14.50;;;;;11.98;41.57;98310.22;6226124;28;97390;-71
2022/02/04 16:48:02;;;;;;;;;16.00;15.00;;;;;12.12;41.38;98325.84;6208132;28;97296;-72
2022/02/04 16:51:05;;;;;;;;;15.75;13.25;;;;;12.08;41.44;98321.19;6226028;27;97369;-74
2022/02/04 16:54:11;;;;;;;;;16.00;15.00;;;;;12.04;41.50;98320.88;6224246;28;96705;-72
2022/02/04 16:57:14;;;;;;;;;18.25;15.50;;;;;11.95;41.58;98324.22;6228893;28;96703;-73
2022/02/04 17:00:22;;;;;;;;;16.00;14.50;;;;;11.90;41.91;98316.84;6229633;28;96536;-73
2022/02/04 17:03:31;;;;;;;;;15.40;14.00;;;;;11.93;41.68;98320.94;6232114;28;97284;-74
2022/02/04 17:06:38;;;;;;;;;16.00;12.80;;;;;11.84;41.90;98312.41;6228855;28;97624;-72
2022/02/04 17:09:48;;;;;;;;;14.60;13.00;;;;;11.68;41.82;98291.56;6211705;27;98158;-74
2022/02/04 17:12:58;;;;;;;;;15.40;14.00;;;;;11.77;42.06;98311.75;6241339;27;96700;-73
2022/02/04 17:16:01;;;;;;;;;15.00;14.00;;;;;11.78;42.21;98309.88;6230378;27;96996;-73
2022/02/04 17:19:05;;;;;;;;;13.75;12.00;;;;;11.84;42.18;98317.81;6232333;28;98563;-74
2022/02/04 17:22:14;;;;;;;;;14.00;13.00;;;;;11.71;42.24;98310.81;6222388;28;96807;-73
2022/02/04 17:25:26;;;;;;;;;16.80;15.00;;;;;11.73;42.43;98307.88;6225380;27;97853;-71
2022/02/04 17:28:31;;;;;;;;;15.00;14.80;;;;;11.78;42.20;98309.88;6223185;28;98939;-72
2022/02/04 17:31:34;;;;;;;;;16.00;14.20;;;;;11.59;42.01;98282.22;6223514;28;98842;-72
2022/02/04 17:34:42;;;;;;;;;16.60;14.60;;;;;11.80;42.24;98302.34;6244303;27;96614;-72
2022/02/04 17:37:46;;;;;;;;;15.00;13.00;;;;;11.78;41.79;98302.56;6239199;27;97391;-74
2022/02/04 17:40:52;;;;;;;;;15.00;12.40;;;;;11.75;42.02;98297.69;6229396;27;98625;-71
2022/02/04 17:43:57;;;;;;;;;12.50;12.00;;;;;11.87;41.95;98311.13;6238382;28;99708;-74
2022/02/04 17:47:00;;;;;;;;;15.00;13.60;;;;;11.89;41.80;98317.91;6240347;27;97447;-74
2022/02/04 17:50:11;;;;;;;;;15.20;14.40;;;;;11.85;41.92;98316.75;6224192;28;97228;-74
2022/02/04 17:53:18;;;;;;;;;13.00;13.00;;;;;11.87;41.88;98320.06;6214050;28;96850;-75
2022/02/04 17:56:32;;;;;;;;;15.80;13.20;;;;;11.89;41.66;98320.59;6222669;27;98553;-74
2022/02/04 18:00:05;;;;;;;;;16.50;14.00;;;;;11.84;41.89;98314.28;6219376;28;96771;-74
2022/02/04 18:03:32;;;;;;;;;14.00;13.00;;;;;11.80;41.70;98319.38;6232906;27;97473;-72
2022/02/04 18:09:55;;;;;;;;;17.20;15.80;;;;;11.57;42.14;98309.50;6188516;28;99336;-72
2022/02/04 18:13:00;;;;;;;;;16.00;14.60;;;;;11.61;42.28;98313.34;6220019;28;98473;-74
2022/02/04 18:16:04;;;;;;;;;15.00;14.00;;;;;11.64;42.10;98306.63;6241541;28;97080;-74
2022/02/04 18:19:07;;;;;;;;;17.00;15.00;;;;;11.14;41.92;98225.56;6238504;28;97041;-72
2022/02/04 18:22:11;;;;;;;;;17.50;15.25;;;;;11.42;42.04;98266.00;6206365;28;98957;-72
2022/02/04 18:25:14;;;;;;;;;18.75;16.75;;;;;11.62;41.93;98303.34;6215521;28;97066;-74
2022/02/04 18:28:21;;;;;;;;;19.00;17.00;;;;;11.63;42.17;98305.78;6216699;28;96859;-74
2022/02/04 18:31:26;;;;;;;;;16.20;15.20;;;;;11.58;42.21;98296.81;6214412;28;96685;-72
2022/02/04 18:34:29;;;;;;;;;17.40;16.60;;;;;11.58;41.98;98291.41;6236148;28;99828;-72
2022/02/04 18:37:36;;;;;;;;;19.20;17.60;;;;;11.51;42.09;98288.84;6219187;28;97554;-74
2022/02/04 18:44:02;;;;;;;;;17.00;17.00;;;;;11.51;42.30;98290.72;6201204;28;96852;-74
2022/02/04 18:47:12;;;;;;;;;17.40;16.00;;;;;11.43;42.36;98285.72;6216785;28;97514;-74
2022/02/04 18:50:26;;;;;;;;;17.60;16.60;;;;;11.50;42.27;98289.09;6212730;28;98541;-73
2022/02/04 18:53:36;;;;;;;;;19.00;17.00;;;;;11.25;42.28;98243.56;6220168;28;96889;-71
2022/02/04 18:57:06;;;;;;;;;16.00;14.20;;;;;11.28;42.24;98262.78;6219632;28;100148;-72
2022/02/04 19:00:14;;;;;;;;;16.50;15.00;;;;;11.55;42.27;98281.06;6199992;28;98574;-72
2022/02/04 19:03:23;;;;;;;;;17.20;15.20;;;;;11.38;42.28;98254.06;6218826;28;97083;-72
2022/02/04 19:06:30;;;;;;;;;15.60;15.00;;;;;11.63;42.21;98276.09;6202930;28;98483;-72
2022/02/04 19:09:35;;;;;;;;;19.50;17.00;;;;;11.65;41.95;98275.84;6225159;28;96622;-73